Lake Bridgeport, Texas
Current Conditions -  °F | °C
As of 12:35 AM on Friday 31 Oct 2014 (Local Time) from KXBP Reporting Station
Clear Clear  
Wind Chill: 14°   Ceiling: Unl
Heat Index: 14°   Visibility: 10mi
Dew Point:   Wind: 0mph
Humidity: 62%   Direction: NA
Pressure: 30.23"   Gusts: NA
Location:  33.1691°N, 97.8246°W
Report Text: KXBP 310535Z AUTO 00000KT 10SM CLR 14/07 A3023 RMK AO2 T01370066
Loading
Personal Weather Stations






























Interactive Weather Map
Tropical Storm Tracking
New forecast layout! Learn more

10-Day Weather Forecast

Advertisements
Track Severe Weather on mobile